Terminal Aerodrome Forecast
Issued by NWS

Current Version | Previous Version | Text Only | Print | Product List | Glossary On
Versions: 1 2 3 4 5 6 7 8 9 10 11 12 13 14 15
000
FTUS45 KPSR 282332
TAFIPL
TAF
KIPL 282332Z 2900/2924 26020G30KT P6SM FEW080
      TEMPO 2900/2903 25022G34KT
     FM290600 26015G22KT P6SM SKC
     FM291200 26006KT P6SM SKC=

USA.gov is the U.S. government's official web portal to all federal, state and local government web resources and services.